Time;durP1;ratioP1;P1;durP2;ratioP2;P2;SDS_P1;SDS_P2;PMS_P1;PMS_P2;Temp;Humidity;BMP_temperature;BMP_pressure;BME280_temperature;BME280_humidity;BME280_pressure;Samples;Min_cycle;Max_cycle;Signal;HPM_P1;HPM_P2
2022/08/08 00:00:19;;;;;;;;;3.25;2.50;;;;;20.09;97.87;101863.56;6207214;22;45402;-83
2022/08/08 00:03:04;;;;;;;;;2.00;1.00;;;;;20.05;96.42;101857.56;6203904;22;47178;-83
2022/08/08 00:05:55;;;;;;;;;5.80;3.00;;;;;19.99;98.02;101872.47;6231989;22;44702;-84
2022/08/08 00:08:56;;;;;;;;;1.60;1.60;;;;;19.93;99.92;101861.38;6232104;22;44673;-83
2022/08/08 00:11:37;;;;;;;;;2.50;2.00;;;;;19.91;97.67;101855.25;6235739;22;44838;-83
2022/08/08 00:14:05;;;;;;;;;2.00;2.00;;;;;19.85;100.00;101859.34;6208869;22;45577;-84
2022/08/08 00:16:39;;;;;;;;;2.40;2.40;;;;;19.85;99.35;101861.19;6224775;22;44615;-84
2022/08/08 00:19:23;;;;;;;;;4.00;2.20;;;;;19.81;100.00;101849.81;6193531;22;45138;-84
2022/08/08 00:21:56;;;;;;;;;2.25;2.25;;;;;19.80;100.00;101856.19;6221727;22;44749;-82
2022/08/08 00:24:37;;;;;;;;;6.00;4.00;;;;;19.77;100.00;101848.38;6216196;22;45030;-81
2022/08/08 00:27:07;;;;;;;;;4.00;4.00;;;;;19.76;100.00;101863.69;6214965;22;44746;-82
2022/08/08 00:29:45;;;;;;;;;5.00;5.00;;;;;19.73;100.00;101863.13;6214108;22;45254;-82
2022/08/08 00:32:45;;;;;;;;;3.50;3.50;;;;;19.69;100.00;101845.50;6187679;22;44783;-81
2022/08/08 00:35:37;;;;;;;;;4.80;4.80;;;;;19.62;100.00;101847.03;6120629;23;45440;-82
2022/08/08 00:38:48;;;;;;;;;4.20;3.80;;;;;19.58;100.00;101843.72;6120757;23;44732;-81
2022/08/08 00:41:31;;;;;;;;;4.60;4.60;;;;;19.54;100.00;101846.81;6107776;23;44773;-82
2022/08/08 00:44:09;;;;;;;;;2.60;2.40;;;;;19.49;100.00;101845.38;6121169;23;45273;-82
2022/08/08 00:46:55;;;;;;;;;5.60;4.60;;;;;19.44;100.00;101847.63;6121086;23;44927;-81
2022/08/08 00:49:40;;;;;;;;;7.20;4.00;;;;;19.35;100.00;101840.34;6120595;23;44695;-81
2022/08/08 00:52:14;;;;;;;;;3.00;1.20;;;;;19.35;100.00;101836.78;6121001;23;45229;-82
2022/08/08 00:55:13;;;;;;;;;4.75;3.25;;;;;19.31;100.00;101840.72;6121375;23;45326;-82
2022/08/08 00:57:53;;;;;;;;;2.80;2.80;;;;;19.27;100.00;101840.13;6120750;23;45339;-81
2022/08/08 01:00:21;;;;;;;;;2.20;2.20;;;;;19.23;100.00;101844.06;6121191;23;45318;-80
2022/08/08 01:02:58;;;;;;;;;4.80;4.40;;;;;19.22;100.00;101832.44;6127703;23;45339;-82
2022/08/08 01:05:44;;;;;;;;;4.00;4.00;;;;;19.17;100.00;101841.91;6130457;23;44824;-81
2022/08/08 01:08:31;;;;;;;;;3.20;3.20;;;;;19.14;100.00;101832.25;6127396;23;45211;-83
2022/08/08 01:11:28;;;;;;;;;3.00;3.00;;;;;19.12;100.00;101834.22;6129474;22;44767;-80
2022/08/08 01:14:04;;;;;;;;;3.60;3.60;;;;;19.08;100.00;101838.16;6216716;22;45299;-82
2022/08/08 01:17:04;;;;;;;;;4.25;4.00;;;;;19.05;100.00;101840.25;6215352;22;45458;-83
2022/08/08 01:19:47;;;;;;;;;4.20;4.20;;;;;19.02;100.00;101825.22;6214911;22;45364;-81
2022/08/08 01:22:12;;;;;;;;;5.00;5.00;;;;;19.02;100.00;101827.91;6213279;22;45323;-81
2022/08/08 01:24:43;;;;;;;;;5.00;4.00;;;;;18.98;100.00;101824.63;6213649;22;44745;-82
2022/08/08 01:27:47;;;;;;;;;4.50;4.50;;;;;18.91;100.00;101826.16;6214101;22;45139;-81
2022/08/08 01:30:32;;;;;;;;;4.00;3.00;;;;;18.88;100.00;101833.63;6212467;22;45298;-82
2022/08/08 01:33:18;;;;;;;;;4.40;3.00;;;;;18.82;100.00;101831.47;6213509;22;45095;-80
2022/08/08 01:36:26;;;;;;;;;3.80;3.80;;;;;18.80;100.00;101826.19;6185548;22;44777;-80
2022/08/08 01:38:54;;;;;;;;;4.75;4.75;;;;;18.81;100.00;101827.03;6213176;22;45197;-80
2022/08/08 01:41:46;;;;;;;;;8.00;5.75;;;;;18.78;100.00;101827.31;6214464;22;45196;-81
2022/08/08 01:44:20;;;;;;;;;4.40;4.40;;;;;18.74;100.00;101832.09;6213835;22;44686;-79
2022/08/08 01:47:15;;;;;;;;;3.20;3.20;;;;;18.69;100.00;101824.41;6215422;22;45105;-81
2022/08/08 01:49:54;;;;;;;;;7.25;5.00;;;;;18.72;100.00;101826.84;6099278;23;44883;-81
2022/08/08 01:53:00;;;;;;;;;5.00;4.40;;;;;18.67;100.00;101823.66;6124551;23;46415;-81
2022/08/08 01:55:58;;;;;;;;;4.80;4.80;;;;;18.63;100.00;101824.88;6096766;23;45210;-84
2022/08/08 01:58:37;;;;;;;;;5.60;4.60;;;;;18.60;100.00;101822.44;6097255;23;44770;-82
2022/08/08 02:01:24;;;;;;;;;7.00;5.00;;;;;18.56;100.00;101826.38;6105018;23;45297;-84
2022/08/08 02:04:18;;;;;;;;;5.00;5.00;;;;;18.56;100.00;101825.50;6101593;23;45247;-82
2022/08/08 02:07:00;;;;;;;;;6.20;3.80;;;;;18.50;100.00;101816.13;6041131;23;44892;-83
2022/08/08 02:09:48;;;;;;;;;7.00;5.00;;;;;18.49;100.00;101826.03;6051922;23;45371;-82
2022/08/08 02:12:26;;;;;;;;;6.75;6.25;;;;;18.47;100.00;101824.47;6069134;23;45415;-80
2022/08/08 02:14:57;;;;;;;;;5.00;5.00;;;;;18.45;100.00;101827.25;6065140;23;45273;-82
2022/08/08 02:17:48;;;;;;;;;5.60;4.00;;;;;18.42;100.00;101819.47;6065874;23;45420;-81
2022/08/08 02:20:28;;;;;;;;;6.20;5.00;;;;;18.38;100.00;101830.59;6061095;23;45464;-81
2022/08/08 02:23:36;;;;;;;;;5.75;5.75;;;;;18.34;100.00;101823.75;6062660;23;45304;-81
2022/08/08 02:26:20;;;;;;;;;4.00;4.00;;;;;18.31;100.00;101829.38;5998233;23;45061;-80
2022/08/08 02:28:59;;;;;;;;;4.80;4.80;;;;;18.29;100.00;101832.22;5992132;23;44754;-82
2022/08/08 02:32:03;;;;;;;;;2.80;2.40;;;;;18.23;100.00;101822.81;6034732;23;44686;-81
2022/08/08 02:34:59;;;;;;;;;7.00;6.25;;;;;18.21;100.00;101821.22;6033328;23;44820;-80
2022/08/08 02:38:03;;;;;;;;;5.00;5.00;;;;;18.16;100.00;101829.66;6033515;23;45186;-80
2022/08/08 02:41:20;;;;;;;;;5.40;5.40;;;;;18.07;100.00;101827.72;6004852;23;44836;-81
2022/08/08 02:44:31;;;;;;;;;3.80;3.80;;;;;18.06;100.00;101817.94;6005035;23;45191;-81
2022/08/08 02:47:14;;;;;;;;;5.00;5.00;;;;;18.05;100.00;101818.06;6004569;23;45403;-81
2022/08/08 02:50:01;;;;;;;;;8.75;5.50;;;;;18.03;100.00;101817.31;6005481;23;45392;-81
2022/08/08 02:52:38;;;;;;;;;0.00;0.00;;;;;17.94;100.00;101819.81;6006121;23;45421;-81
2022/08/08 02:55:32;;;;;;;;;6.20;4.60;;;;;17.94;100.00;101824.34;6008336;23;45343;-81
2022/08/08 02:58:17;;;;;;;;;8.00;5.00;;;;;17.90;100.00;101825.56;6091982;23;44812;-80
2022/08/08 03:01:07;;;;;;;;;5.25;5.25;;;;;17.83;100.00;101824.31;6090707;23;45483;-82
2022/08/08 03:03:51;;;;;;;;;8.00;7.40;;;;;17.80;100.00;101825.44;6091604;23;44893;-82
2022/08/08 03:06:29;;;;;;;;;8.40;5.00;;;;;17.79;100.00;101826.38;6092143;23;45304;-81
2022/08/08 03:09:31;;;;;;;;;7.75;7.25;;;;;17.73;100.00;101827.75;6092256;23;44762;-81
2022/08/08 03:12:19;;;;;;;;;9.00;6.25;;;;;17.73;100.00;101822.38;6066505;23;45619;-81
2022/08/08 03:15:19;;;;;;;;;4.60;4.60;;;;;17.73;100.00;101830.44;6097117;23;44738;-80
2022/08/08 03:17:57;;;;;;;;;6.25;5.50;;;;;17.72;100.00;101830.53;6156651;23;45344;-81
2022/08/08 03:20:22;;;;;;;;;8.25;8.25;;;;;17.69;100.00;101834.28;6135454;23;45407;-81
2022/08/08 03:22:50;;;;;;;;;7.25;6.25;;;;;17.65;100.00;101840.06;6185689;22;46113;-81
2022/08/08 03:25:18;;;;;;;;;5.60;4.00;;;;;17.61;100.00;101831.38;6185738;23;44732;-81
2022/08/08 03:27:58;;;;;;;;;6.00;6.00;;;;;17.61;100.00;101842.13;6158364;23;45251;-80
2022/08/08 03:30:25;;;;;;;;;6.75;4.25;;;;;17.58;100.00;101834.31;6157333;23;45436;-80
2022/08/08 03:35:39;;;;;;;;;4.80;4.80;;;;;17.53;100.00;101841.03;6187271;23;45243;-83
2022/08/08 03:38:05;;;;;;;;;9.75;8.25;;;;;17.48;100.00;101852.13;6192006;23;44684;-83
2022/08/08 03:40:31;;;;;;;;;7.75;7.00;;;;;17.45;100.00;101846.97;6191042;23;44884;-82
2022/08/08 03:42:57;;;;;;;;;6.00;5.25;;;;;17.42;100.00;101841.88;6195284;23;44994;-83
2022/08/08 03:45:25;;;;;;;;;8.40;7.80;;;;;17.43;100.00;101838.19;6190109;23;44619;-82
2022/08/08 03:48:17;;;;;;;;;9.25;7.75;;;;;17.38;100.00;101848.44;6161592;23;44704;-83
2022/08/08 03:50:47;;;;;;;;;6.00;6.00;;;;;17.36;100.00;101853.97;6188823;23;44738;-82
2022/08/08 03:53:16;;;;;;;;;5.75;4.00;;;;;17.33;100.00;101850.66;6189165;23;45574;-83
2022/08/08 03:55:45;;;;;;;;;11.40;8.80;;;;;17.31;100.00;101858.84;6183979;23;44701;-83
2022/08/08 03:58:24;;;;;;;;;12.00;9.00;;;;;17.29;100.00;101857.22;6183949;23;45347;-83
2022/08/08 04:00:52;;;;;;;;;4.75;4.75;;;;;17.28;100.00;101845.63;6186460;23;44716;-83
2022/08/08 04:03:19;;;;;;;;;8.50;7.25;;;;;17.27;100.00;101846.59;6160354;23;46106;-83
2022/08/08 04:05:46;;;;;;;;;5.50;5.50;;;;;17.29;100.00;101857.22;6159380;23;45233;-83
2022/08/08 04:08:22;;;;;;;;;10.50;7.75;;;;;17.27;100.00;101859.19;6184041;23;45366;-83
2022/08/08 04:10:50;;;;;;;;;5.50;5.00;;;;;17.26;100.00;101854.75;6210774;22;45304;-83
2022/08/08 04:13:16;;;;;;;;;7.50;7.00;;;;;17.25;100.00;101861.13;6187077;22;45448;-84
2022/08/08 04:15:43;;;;;;;;;6.60;6.60;;;;;17.25;100.00;101848.53;6213472;22;44668;-83
2022/08/08 04:18:08;;;;;;;;;7.00;7.00;;;;;17.24;100.00;101848.66;6188244;22;44701;-83
2022/08/08 04:20:33;;;;;;;;;5.25;5.25;;;;;17.21;100.00;101850.63;6216797;22;44581;-83
2022/08/08 04:22:59;;;;;;;;;11.00;9.25;;;;;17.16;100.00;101858.19;6189607;22;46546;-82
2022/08/08 04:25:24;;;;;;;;;11.50;7.25;;;;;17.21;100.00;101857.81;6188937;22;45556;-81
2022/08/08 04:27:49;;;;;;;;;11.00;8.00;;;;;17.14;100.00;101861.94;6215804;22;45171;-83
2022/08/08 04:30:15;;;;;;;;;4.25;4.25;;;;;17.13;100.00;101860.25;6215772;22;44782;-83
2022/08/08 04:32:40;;;;;;;;;9.50;9.25;;;;;17.13;100.00;101861.09;6188710;22;46232;-82
2022/08/08 04:35:07;;;;;;;;;7.25;7.25;;;;;17.13;100.00;101861.09;6216431;22;44699;-83
2022/08/08 04:37:32;;;;;;;;;13.00;9.50;;;;;17.12;100.00;101856.72;6217937;22;44726;-82
2022/08/08 04:39:58;;;;;;;;;6.50;4.50;;;;;17.10;100.00;101858.63;6218081;22;44845;-84
2022/08/08 04:42:25;;;;;;;;;11.75;9.25;;;;;17.09;100.00;101866.81;6217323;22;45263;-84
2022/08/08 04:44:54;;;;;;;;;10.50;9.25;;;;;17.06;100.00;101865.22;6223713;22;44618;-83
2022/08/08 04:47:20;;;;;;;;;9.25;9.25;;;;;17.04;100.00;101867.16;6221377;22;45375;-84
2022/08/08 04:49:45;;;;;;;;;9.00;8.25;;;;;17.06;100.00;101875.94;6190265;22;45267;-83
2022/08/08 04:52:11;;;;;;;;;11.50;11.00;;;;;17.11;100.00;101879.13;6217589;22;45000;-84
2022/08/08 04:54:36;;;;;;;;;9.00;7.75;;;;;17.16;100.00;101887.72;6191354;22;45275;-84
2022/08/08 04:57:01;;;;;;;;;11.00;8.00;;;;;17.19;100.00;101878.56;6194548;22;44830;-84
2022/08/08 04:59:27;;;;;;;;;11.25;9.00;;;;;17.26;100.00;101863.69;6193535;22;44785;-85
2022/08/08 05:01:52;;;;;;;;;11.75;11.75;;;;;17.33;100.00;101874.81;6216539;22;45235;-84
2022/08/08 05:04:17;;;;;;;;;8.75;8.75;;;;;17.42;100.00;101871.44;6218636;22;44749;-84
2022/08/08 05:06:44;;;;;;;;;10.25;8.25;;;;;17.53;100.00;101876.81;6222362;22;44931;-84
2022/08/08 05:09:09;;;;;;;;;7.75;7.75;;;;;17.62;100.00;101877.91;6224704;22;44760;-84
2022/08/08 05:11:35;;;;;;;;;9.50;7.75;;;;;17.61;100.00;101877.06;6224567;22;45283;-84
2022/08/08 05:14:00;;;;;;;;;10.75;8.75;;;;;17.60;100.00;101878.06;6195867;22;44738;-83
2022/08/08 05:16:25;;;;;;;;;7.50;7.50;;;;;17.59;100.00;101884.38;6221321;22;45196;-83
2022/08/08 05:18:52;;;;;;;;;7.25;7.25;;;;;17.72;100.00;101884.28;6221041;22;44758;-83
2022/08/08 05:21:17;;;;;;;;;6.25;6.25;;;;;17.80;100.00;101886.41;6190710;22;46831;-84
2022/08/08 05:23:42;;;;;;;;;10.00;9.25;;;;;17.82;100.00;101887.97;6218275;22;45128;-84
2022/08/08 05:26:08;;;;;;;;;8.75;8.00;;;;;17.96;100.00;101886.91;6217516;22;44805;-84
2022/08/08 05:28:33;;;;;;;;;11.25;10.00;;;;;18.07;100.00;101904.84;6217435;22;45153;-84
2022/08/08 05:30:58;;;;;;;;;9.00;9.00;;;;;18.16;100.00;101898.75;6217182;22;45157;-83
2022/08/08 05:33:24;;;;;;;;;9.50;9.50;;;;;18.25;100.00;101892.63;6192226;22;45284;-83
2022/08/08 05:35:53;;;;;;;;;9.75;8.25;;;;;18.32;100.00;101898.34;6188960;22;45344;-83
2022/08/08 05:38:21;;;;;;;;;4.25;3.50;;;;;18.32;100.00;101891.13;6217890;22;44798;-82
2022/08/08 05:40:52;;;;;;;;;4.00;4.00;;;;;18.30;100.00;101894.94;6223444;22;45207;-84
2022/08/08 05:43:29;;;;;;;;;8.60;7.20;;;;;18.27;100.00;101900.56;6222423;22;44877;-82
2022/08/08 05:46:01;;;;;;;;;9.40;8.60;;;;;18.28;100.00;101896.91;6189829;22;44673;-82
2022/08/08 05:48:27;;;;;;;;;9.50;9.50;;;;;18.46;100.00;101904.31;6218319;22;44657;-81
2022/08/08 05:50:53;;;;;;;;;8.50;8.50;;;;;18.45;100.00;101913.38;6215013;22;45131;-82
2022/08/08 05:53:26;;;;;;;;;8.50;8.50;;;;;18.53;100.00;101903.84;6215233;22;44713;-80
2022/08/08 05:55:54;;;;;;;;;16.25;12.00;;;;;18.50;100.00;101913.84;6213782;22;45369;-81
2022/08/08 05:58:28;;;;;;;;;7.25;7.25;;;;;18.65;100.00;101913.56;6213462;22;45263;-81
2022/08/08 06:01:00;;;;;;;;;10.75;9.25;;;;;18.70;100.00;101911.38;6213870;22;44985;-81
2022/08/08 06:03:27;;;;;;;;;14.60;9.20;;;;;18.80;100.00;101908.78;6213635;22;44706;-83
2022/08/08 06:06:02;;;;;;;;;7.60;7.60;;;;;18.85;100.00;101909.25;6215096;22;44787;-82
2022/08/08 06:08:30;;;;;;;;;10.50;9.25;;;;;18.91;100.00;101908.78;6187770;22;45239;-82
2022/08/08 06:10:57;;;;;;;;;12.00;9.25;;;;;19.02;100.00;101913.25;6217941;22;46423;-82
2022/08/08 06:13:24;;;;;;;;;11.60;9.80;;;;;19.15;100.00;101912.09;6219058;22;44655;-83
2022/08/08 06:15:53;;;;;;;;;8.80;8.80;;;;;19.27;100.00;101918.28;6215468;22;45551;-82
2022/08/08 06:18:19;;;;;;;;;7.50;6.00;;;;;19.25;100.00;101914.88;6214484;22;44721;-83
2022/08/08 06:20:45;;;;;;;;;10.50;10.50;;;;;19.34;100.00;101919.47;6214792;22;45469;-82
2022/08/08 06:23:11;;;;;;;;;9.75;8.50;;;;;19.46;100.00;101921.09;6214582;22;45174;-81
2022/08/08 06:25:41;;;;;;;;;9.50;9.50;;;;;19.69;100.00;101924.56;6215104;22;44640;-80
2022/08/08 06:28:16;;;;;;;;;10.25;9.50;;;;;19.77;100.00;101924.75;6215355;22;44831;-82
2022/08/08 06:30:43;;;;;;;;;9.25;9.25;;;;;19.90;100.00;101926.38;6215387;22;45049;-81
2022/08/08 06:33:11;;;;;;;;;9.20;9.20;;;;;19.88;100.00;101933.75;6214621;22;44728;-82
2022/08/08 06:35:45;;;;;;;;;9.60;8.80;;;;;20.00;100.00;101938.06;6215135;22;45213;-81
2022/08/08 06:38:20;;;;;;;;;10.75;9.75;;;;;19.98;100.00;101937.34;6190053;22;45497;-80
2022/08/08 06:40:49;;;;;;;;;9.80;9.60;;;;;19.97;100.00;101943.75;6217060;22;45182;-81
2022/08/08 06:43:19;;;;;;;;;10.80;10.00;;;;;20.07;100.00;101943.78;6187733;22;45283;-81
2022/08/08 06:45:45;;;;;;;;;10.80;10.80;;;;;20.23;100.00;101939.59;6213925;22;44631;-82
2022/08/08 06:48:10;;;;;;;;;9.75;6.25;;;;;20.41;100.00;101939.78;6214338;22;45112;-82
2022/08/08 06:50:38;;;;;;;;;7.00;7.00;;;;;20.58;100.00;101943.69;6215889;22;45099;-82
2022/08/08 06:53:04;;;;;;;;;12.80;11.40;;;;;20.44;100.00;101946.75;6188071;22;45117;-83
2022/08/08 06:55:30;;;;;;;;;12.00;9.00;;;;;20.56;100.00;101936.75;6216094;22;45290;-81
2022/08/08 06:57:56;;;;;;;;;8.25;6.00;;;;;20.54;100.00;101948.50;6215739;22;45251;-82
2022/08/08 07:00:22;;;;;;;;;14.25;10.00;;;;;20.56;100.00;101952.94;6216644;22;46080;-82
2022/08/08 07:02:52;;;;;;;;;7.50;7.50;;;;;20.56;100.00;101942.16;6215744;22;45326;-82
2022/08/08 07:05:23;;;;;;;;;9.60;8.20;;;;;20.70;100.00;101949.84;6216290;22;44717;-83
2022/08/08 07:07:51;;;;;;;;;12.00;9.50;;;;;20.72;100.00;101953.25;6216035;22;44819;-81
2022/08/08 07:10:20;;;;;;;;;3.40;2.40;;;;;20.78;100.00;101955.38;6214009;22;45204;-82
2022/08/08 07:13:02;;;;;;;;;11.60;8.40;;;;;20.69;100.00;101961.63;6216897;22;45348;-81
2022/08/08 07:15:42;;;;;;;;;8.60;7.00;;;;;20.63;100.00;101957.63;6216673;22;45229;-83
2022/08/08 07:18:08;;;;;;;;;8.50;8.00;;;;;20.54;100.00;101962.00;6214599;22;44728;-82
2022/08/08 07:20:37;;;;;;;;;10.20;10.20;;;;;20.58;100.00;101967.16;6215675;22;45344;-82
2022/08/08 07:23:16;;;;;;;;;7.60;6.20;;;;;20.57;100.00;101960.91;6187246;22;45228;-81
2022/08/08 07:25:45;;;;;;;;;7.80;7.80;;;;;20.64;100.00;101963.88;6214095;22;45172;-82
2022/08/08 07:28:14;;;;;;;;;14.00;9.75;;;;;20.79;100.00;101973.31;6187487;22;45497;-80
2022/08/08 07:30:40;;;;;;;;;7.80;7.80;;;;;20.85;100.00;101971.91;6215559;22;45394;-82
2022/08/08 07:33:07;;;;;;;;;10.60;6.00;;;;;21.03;100.00;101968.38;6188022;22;45310;-82
2022/08/08 07:35:35;;;;;;;;;8.80;8.80;;;;;21.05;100.00;101968.25;6216524;22;44772;-83
2022/08/08 07:38:00;;;;;;;;;5.75;5.00;;;;;21.11;100.00;101969.53;6218785;22;45188;-82
2022/08/08 07:40:26;;;;;;;;;8.25;7.25;;;;;21.04;100.00;101969.25;6217599;22;45144;-80
2022/08/08 07:42:53;;;;;;;;;9.80;7.20;;;;;21.09;100.00;101976.94;6214629;22;45093;-83
2022/08/08 07:45:20;;;;;;;;;4.60;4.60;;;;;21.13;100.00;101968.41;6187273;22;44714;-82
2022/08/08 07:47:46;;;;;;;;;8.25;7.75;;;;;21.14;100.00;101985.47;6214656;22;45313;-82
2022/08/08 07:50:12;;;;;;;;;7.75;7.75;;;;;21.31;100.00;101984.78;6215143;22;45022;-82
2022/08/08 07:52:40;;;;;;;;;11.00;9.00;;;;;21.35;100.00;101990.75;6214065;22;45374;-81
2022/08/08 07:55:23;;;;;;;;;6.00;5.20;;;;;21.26;100.00;101985.16;6215314;22;44588;-81
2022/08/08 07:58:15;;;;;;;;;7.25;5.75;;;;;21.46;100.00;101986.03;6217132;22;45437;-82
2022/08/08 08:01:04;;;;;;;;;11.25;8.75;;;;;21.51;100.00;101975.66;6190120;22;46915;-81
2022/08/08 08:03:40;;;;;;;;;9.60;8.00;;;;;21.58;100.00;101989.47;6217331;22;45196;-82
2022/08/08 08:06:10;;;;;;;;;8.20;7.60;;;;;21.58;99.98;101970.53;6219506;22;45259;-82
2022/08/08 08:08:52;;;;;;;;;8.25;7.75;;;;;21.78;99.56;101982.19;6218632;22;45280;-82
2022/08/08 08:11:19;;;;;;;;;6.80;6.80;;;;;21.74;98.96;101988.88;6187815;22;45330;-80
2022/08/08 08:14:10;;;;;;;;;8.00;6.00;;;;;21.74;98.75;101978.91;6187099;23;44758;-83
2022/08/08 08:16:38;;;;;;;;;7.80;5.80;;;;;21.95;97.45;101986.84;6187964;23;45164;-82
2022/08/08 08:19:07;;;;;;;;;4.00;3.20;;;;;22.09;97.43;101977.38;6188341;23;44887;-82
2022/08/08 08:21:47;;;;;;;;;10.00;6.60;;;;;22.35;95.12;101976.78;6161345;23;46815;-83
2022/08/08 08:24:14;;;;;;;;;6.00;6.00;;;;;22.50;93.86;101981.53;6186816;23;44770;-82
2022/08/08 08:26:39;;;;;;;;;4.00;4.00;;;;;22.67;91.10;101995.25;6184444;22;45250;-81
2022/08/08 08:29:05;;;;;;;;;5.50;4.00;;;;;22.74;91.28;101977.41;6184222;23;45483;-82
2022/08/08 08:31:31;;;;;;;;;4.20;4.20;;;;;22.84;89.42;101965.50;6184457;23;46078;-83
2022/08/08 08:33:57;;;;;;;;;4.50;4.50;;;;;22.74;88.56;101958.44;6187754;23;45159;-81
2022/08/08 08:36:23;;;;;;;;;3.75;3.25;;;;;22.76;87.98;101992.50;6188748;23;44802;-82
2022/08/08 08:38:49;;;;;;;;;0.00;0.00;;;;;22.97;87.06;101981.44;6190183;23;44726;-82
2022/08/08 08:41:17;;;;;;;;;3.25;3.25;;;;;22.99;84.89;101978.56;6189583;23;45388;-82
2022/08/08 08:43:45;;;;;;;;;4.20;4.20;;;;;23.14;82.80;101987.88;6186597;23;44631;-82
2022/08/08 08:46:11;;;;;;;;;5.40;4.40;;;;;23.27;83.80;101980.19;6184631;23;44754;-82
2022/08/08 08:48:41;;;;;;;;;5.00;5.00;;;;;23.44;82.38;101992.03;6183736;23;44671;-82
2022/08/08 08:51:11;;;;;;;;;6.40;3.00;;;;;23.49;80.52;101986.13;6182843;23;45182;-82
2022/08/08 08:54:00;;;;;;;;;7.20;6.40;;;;;23.48;82.86;101982.59;6182235;23;44793;-83
2022/08/08 08:56:27;;;;;;;;;3.40;3.40;;;;;23.67;82.92;101978.00;6183447;23;44704;-83
2022/08/08 08:58:55;;;;;;;;;4.20;4.20;;;;;23.76;81.18;101975.22;6182628;23;44805;-82
2022/08/08 09:01:25;;;;;;;;;4.40;4.00;;;;;23.83;80.06;101976.25;6156635;23;46693;-81
2022/08/08 09:03:54;;;;;;;;;4.80;4.80;;;;;23.87;80.11;101987.66;6183228;23;45240;-81
2022/08/08 09:06:25;;;;;;;;;6.40;5.20;;;;;23.88;79.31;101977.66;6156967;23;45386;-82
2022/08/08 09:09:00;;;;;;;;;2.40;2.40;;;;;24.06;78.45;101984.72;6186250;22;44768;-82
2022/08/08 09:11:31;;;;;;;;;5.00;3.00;;;;;24.16;76.84;101981.03;6214489;22;45040;-81
2022/08/08 09:13:58;;;;;;;;;3.40;3.40;;;;;24.13;76.60;101987.66;6215188;22;45266;-81
2022/08/08 09:16:23;;;;;;;;;0.00;0.00;;;;;23.99;75.80;101980.97;6215113;22;44680;-80
2022/08/08 09:18:49;;;;;;;;;4.25;4.25;;;;;23.92;76.76;101979.03;6187590;22;45252;-83
2022/08/08 09:21:15;;;;;;;;;3.00;3.00;;;;;24.01;76.31;101975.38;6187259;22;45354;-81
2022/08/08 09:23:41;;;;;;;;;4.00;4.00;;;;;24.09;74.69;101981.69;6214761;22;44646;-83
2022/08/08 09:26:28;;;;;;;;;4.00;4.00;;;;;24.08;74.87;101977.28;6215169;22;44616;-82
2022/08/08 09:28:59;;;;;;;;;3.00;3.00;;;;;24.15;74.60;101969.34;6218337;22;44858;-85
2022/08/08 09:31:53;;;;;;;;;5.80;5.00;;;;;24.25;72.29;101982.78;6224460;22;45494;-87
2022/08/08 09:34:19;;;;;;;;;6.60;4.40;;;;;24.20;72.59;101974.28;6195910;22;44787;-85
2022/08/08 09:36:46;;;;;;;;;3.40;2.00;;;;;24.36;73.16;101974.38;6218952;22;44683;-84
2022/08/08 09:39:18;;;;;;;;;4.40;4.40;;;;;24.41;71.49;101965.75;6220999;22;44698;-87
2022/08/08 09:41:58;;;;;;;;;5.80;5.00;;;;;24.47;71.59;101968.69;6192368;22;46815;-82
2022/08/08 09:45:01;;;;;;;;;6.60;6.20;;;;;24.34;71.59;101970.97;6217921;22;45279;-82
2022/08/08 09:47:30;;;;;;;;;3.60;3.60;;;;;24.36;72.10;101964.38;6218526;22;45177;-82
2022/08/08 09:49:57;;;;;;;;;4.00;3.00;;;;;24.52;70.42;101960.03;6186925;22;45273;-82
2022/08/08 09:52:28;;;;;;;;;5.00;5.00;;;;;24.65;70.91;101976.72;6214213;22;45045;-80
2022/08/08 09:54:54;;;;;;;;;5.00;5.00;;;;;24.65;68.86;101962.28;6214309;22;44778;-83
2022/08/08 09:57:30;;;;;;;;;5.75;4.75;;;;;24.57;69.82;101953.09;6214170;22;45290;-82
2022/08/08 09:59:59;;;;;;;;;2.00;2.00;;;;;24.82;70.84;101969.47;6213866;22;44803;-83
2022/08/08 10:02:33;;;;;;;;;8.20;4.20;;;;;24.88;69.62;101966.06;6213711;22;45111;-81
2022/08/08 10:05:05;;;;;;;;;4.40;4.40;;;;;25.09;68.81;101969.22;6214053;22;45342;-82
2022/08/08 10:07:30;;;;;;;;;7.40;7.00;;;;;25.10;69.35;101964.63;6213914;22;45215;-81
2022/08/08 10:09:56;;;;;;;;;3.75;3.75;;;;;25.19;68.07;101949.16;6214228;22;44809;-80
2022/08/08 10:12:31;;;;;;;;;7.50;6.25;;;;;25.18;64.70;101967.34;6214327;22;45322;-82
2022/08/08 10:15:00;;;;;;;;;4.60;4.60;;;;;25.12;64.28;101955.28;6213643;22;44813;-82
2022/08/08 10:17:26;;;;;;;;;4.00;3.00;;;;;25.32;65.81;101955.78;6214923;22;44742;-81
2022/08/08 10:19:57;;;;;;;;;2.75;2.75;;;;;25.51;64.22;101975.53;6219766;22;45068;-83
2022/08/08 10:22:24;;;;;;;;;6.00;6.00;;;;;25.46;63.91;101947.97;6221290;22;45055;-82
2022/08/08 10:24:58;;;;;;;;;5.60;4.40;;;;;25.34;63.73;101961.09;6193203;22;45215;-83
2022/08/08 10:27:28;;;;;;;;;4.00;4.00;;;;;25.37;64.77;101941.69;6220773;22;44825;-82
2022/08/08 10:30:02;;;;;;;;;5.00;5.00;;;;;25.53;63.64;101948.97;6219860;22;45252;-83
2022/08/08 10:32:31;;;;;;;;;3.00;3.00;;;;;25.50;63.11;101950.19;6190745;22;45465;-82
2022/08/08 10:34:59;;;;;;;;;5.00;5.00;;;;;25.33;62.27;101948.47;6219090;22;44777;-81
2022/08/08 10:37:30;;;;;;;;;4.00;4.00;;;;;25.41;61.81;101934.88;6218695;22;44545;-85
2022/08/08 10:39:57;;;;;;;;;4.60;3.40;;;;;25.49;62.56;101936.75;6217013;22;44893;-83
2022/08/08 10:42:30;;;;;;;;;2.60;2.60;;;;;25.45;61.08;101946.28;6189356;22;45031;-82
2022/08/08 10:45:05;;;;;;;;;3.80;3.00;;;;;25.47;62.72;101939.63;6217690;22;44678;-82
2022/08/08 10:47:31;;;;;;;;;3.00;3.00;;;;;25.44;62.63;101950.88;6180725;22;44706;-82
2022/08/08 10:50:02;;;;;;;;;1.75;1.75;;;;;25.46;59.65;101934.38;6217303;22;44813;-81
2022/08/08 10:52:48;;;;;;;;;5.00;5.00;;;;;25.70;60.18;101933.50;6217423;22;45334;-81
2022/08/08 10:55:19;;;;;;;;;6.20;3.80;;;;;26.02;60.30;101916.25;6098080;23;44704;-81
2022/08/08 10:57:49;;;;;;;;;4.80;3.00;;;;;26.08;57.08;101930.03;6123351;23;45202;-82
2022/08/08 11:00:21;;;;;;;;;4.20;2.00;;;;;26.02;58.52;101921.72;6122839;23;44838;-82
2022/08/08 11:02:46;;;;;;;;;5.00;4.20;;;;;26.02;58.48;101930.72;6122561;23;44902;-82
2022/08/08 11:05:12;;;;;;;;;4.75;4.75;;;;;26.14;57.62;101917.56;6130120;23;44603;-81
2022/08/08 11:07:47;;;;;;;;;1.25;1.25;;;;;26.21;56.03;101931.34;6135893;23;44701;-82
2022/08/08 11:10:15;;;;;;;;;3.80;2.80;;;;;26.26;53.35;101927.06;6125910;23;45210;-83
2022/08/08 11:12:54;;;;;;;;;4.00;4.00;;;;;26.43;52.32;101935.19;6125895;23;45196;-83
2022/08/08 11:15:22;;;;;;;;;7.00;3.20;;;;;26.51;51.17;101935.16;6129254;23;45494;-82
2022/08/08 11:17:50;;;;;;;;;4.60;4.60;;;;;26.51;51.33;101936.00;6125056;23;45214;-82
2022/08/08 11:20:19;;;;;;;;;4.40;4.00;;;;;26.56;48.86;101935.47;6127743;23;44792;-82
2022/08/08 11:22:50;;;;;;;;;2.20;2.20;;;;;26.58;47.11;101947.03;6126462;23;45637;-83
2022/08/08 11:25:16;;;;;;;;;5.80;4.80;;;;;26.69;46.55;101940.31;6125227;23;44834;-82
2022/08/08 11:27:45;;;;;;;;;3.00;3.00;;;;;26.87;47.39;101927.25;6125723;23;44873;-82
2022/08/08 11:30:11;;;;;;;;;2.60;2.20;;;;;26.94;46.31;101922.78;6127175;23;45398;-83
2022/08/08 11:32:39;;;;;;;;;4.75;3.00;;;;;26.91;45.43;101924.00;6166391;22;46985;-83
2022/08/08 11:35:10;;;;;;;;;4.20;3.60;;;;;26.97;46.35;101913.38;6187234;22;45381;-82
2022/08/08 11:37:38;;;;;;;;;2.40;2.40;;;;;26.97;46.63;101916.13;6215071;22;44656;-82
2022/08/08 11:40:05;;;;;;;;;3.60;3.00;;;;;27.00;46.78;101916.59;6214921;22;45255;-82
2022/08/08 11:42:32;;;;;;;;;3.20;3.20;;;;;27.16;46.14;101921.97;6212219;22;47031;-83
2022/08/08 11:44:58;;;;;;;;;3.00;2.00;;;;;27.08;45.57;101923.94;6215411;22;44712;-81
2022/08/08 11:47:25;;;;;;;;;6.00;4.25;;;;;27.25;45.80;101919.16;6215130;22;44793;-84
2022/08/08 11:49:57;;;;;;;;;2.60;2.60;;;;;27.40;42.91;101909.13;6215735;22;44779;-83
2022/08/08 11:52:24;;;;;;;;;1.20;1.20;;;;;27.53;43.44;101903.91;6214521;22;45048;-83